sensor_id;sensor_type;location;lat;lon;timestamp;pressure;altitude;pressure_sealevel;temperature;humidity
62124;BME280;48110;47.532;19.078;2023-01-15T00:02:16;100786.44;;;2.36;100.00
62124;BME280;48110;47.532;19.078;2023-01-15T00:05:24;100784.00;;;2.33;100.00
62124;BME280;48110;47.532;19.078;2023-01-15T00:08:33;100793.03;;;2.29;100.00
62124;BME280;48110;47.532;19.078;2023-01-15T00:11:40;100785.81;;;2.07;100.00
62124;BME280;48110;47.532;19.078;2023-01-15T00:14:47;100789.03;;;2.10;100.00
62124;BME280;48110;47.532;19.078;2023-01-15T00:17:57;100789.66;;;2.01;100.00
62124;BME280;48110;47.532;19.078;2023-01-15T00:21:06;100787.88;;;2.14;100.00
62124;BME280;48110;47.532;19.078;2023-01-15T00:24:14;100779.63;;;2.08;100.00
62124;BME280;48110;47.532;19.078;2023-01-15T00:27:38;100781.94;;;2.12;100.00
62124;BME280;48110;47.532;19.078;2023-01-15T00:30:44;100770.41;;;2.02;100.00
62124;BME280;48110;47.532;19.078;2023-01-15T00:33:51;100771.88;;;2.06;100.00
62124;BME280;48110;47.532;19.078;2023-01-15T00:36:57;100773.03;;;2.15;100.00
62124;BME280;48110;47.532;19.078;2023-01-15T00:40:03;100774.19;;;2.11;100.00
62124;BME280;48110;47.532;19.078;2023-01-15T00:43:11;100765.72;;;2.07;100.00
62124;BME280;48110;47.532;19.078;2023-01-15T00:46:21;100766.75;;;2.05;100.00
62124;BME280;48110;47.532;19.078;2023-01-15T00:49:28;100754.81;;;2.01;100.00
62124;BME280;48110;47.532;19.078;2023-01-15T00:52:32;100759.81;;;2.04;100.00
62124;BME280;48110;47.532;19.078;2023-01-15T00:55:40;100754.06;;;1.99;100.00
62124;BME280;48110;47.532;19.078;2023-01-15T00:58:48;100762.44;;;2.04;100.00
62124;BME280;48110;47.532;19.078;2023-01-15T01:01:59;100760.56;;;2.06;100.00
62124;BME280;48110;47.532;19.078;2023-01-15T01:05:06;100760.25;;;1.98;100.00
62124;BME280;48110;47.532;19.078;2023-01-15T01:08:13;100750.13;;;1.93;100.00
62124;BME280;48110;47.532;19.078;2023-01-15T01:11:21;100737.12;;;1.92;100.00
62124;BME280;48110;47.532;19.078;2023-01-15T01:14:35;100742.25;;;1.93;100.00
62124;BME280;48110;47.532;19.078;2023-01-15T01:17:43;100742.66;;;1.87;100.00
62124;BME280;48110;47.532;19.078;2023-01-15T01:20:53;100743.28;;;1.78;100.00
62124;BME280;48110;47.532;19.078;2023-01-15T01:24:00;100746.00;;;1.77;100.00
62124;BME280;48110;47.532;19.078;2023-01-15T01:27:09;100745.47;;;1.84;100.00
62124;BME280;48110;47.532;19.078;2023-01-15T01:30:17;100750.31;;;1.78;100.00
62124;BME280;48110;47.532;19.078;2023-01-15T01:33:27;100740.16;;;1.73;100.00
62124;BME280;48110;47.532;19.078;2023-01-15T01:36:34;100724.84;;;1.67;100.00
62124;BME280;48110;47.532;19.078;2023-01-15T01:39:43;100725.37;;;1.72;100.00
62124;BME280;48110;47.532;19.078;2023-01-15T01:42:49;100733.84;;;1.75;100.00
62124;BME280;48110;47.532;19.078;2023-01-15T01:45:58;100722.69;;;1.73;100.00
62124;BME280;48110;47.532;19.078;2023-01-15T01:49:08;100721.44;;;1.79;100.00
62124;BME280;48110;47.532;19.078;2023-01-15T01:52:15;100718.69;;;1.81;100.00
62124;BME280;48110;47.532;19.078;2023-01-15T01:55:24;100716.25;;;1.65;100.00
62124;BME280;48110;47.532;19.078;2023-01-15T01:58:34;100711.66;;;1.56;100.00
62124;BME280;48110;47.532;19.078;2023-01-15T02:01:42;100695.88;;;1.57;100.00
62124;BME280;48110;47.532;19.078;2023-01-15T02:04:50;100695.75;;;1.46;100.00
62124;BME280;48110;47.532;19.078;2023-01-15T02:07:57;100687.28;;;1.55;100.00
62124;BME280;48110;47.532;19.078;2023-01-15T02:11:05;100679.56;;;1.54;100.00
62124;BME280;48110;47.532;19.078;2023-01-15T02:14:18;100685.72;;;1.53;100.00
62124;BME280;48110;47.532;19.078;2023-01-15T02:20:45;100681.69;;;1.74;100.00
62124;BME280;48110;47.532;19.078;2023-01-15T02:27:18;100657.41;;;1.59;100.00
62124;BME280;48110;47.532;19.078;2023-01-15T02:30:34;100664.94;;;1.64;100.00
62124;BME280;48110;47.532;19.078;2023-01-15T02:33:55;100673.31;;;1.69;100.00
62124;BME280;48110;47.532;19.078;2023-01-15T02:37:09;100663.78;;;1.68;100.00
62124;BME280;48110;47.532;19.078;2023-01-15T02:40:18;100657.06;;;1.51;100.00
62124;BME280;48110;47.532;19.078;2023-01-15T02:43:28;100657.41;;;1.59;100.00
62124;BME280;48110;47.532;19.078;2023-01-15T02:46:38;100648.91;;;1.56;100.00
62124;BME280;48110;47.532;19.078;2023-01-15T02:49:51;100643.91;;;1.40;100.00
62124;BME280;48110;47.532;19.078;2023-01-15T02:53:00;100641.69;;;1.47;100.00
62124;BME280;48110;47.532;19.078;2023-01-15T02:56:12;100637.28;;;1.47;100.00
62124;BME280;48110;47.532;19.078;2023-01-15T02:59:22;100637.59;;;1.43;100.00
62124;BME280;48110;47.532;19.078;2023-01-15T03:02:35;100637.72;;;1.54;100.00
62124;BME280;48110;47.532;19.078;2023-01-15T03:05:55;100645.88;;;1.49;100.00
62124;BME280;48110;47.532;19.078;2023-01-15T03:09:00;100630.28;;;1.48;100.00
62124;BME280;48110;47.532;19.078;2023-01-15T03:12:17;100626.41;;;1.41;100.00
62124;BME280;48110;47.532;19.078;2023-01-15T03:15:24;100629.03;;;1.41;100.00
62124;BME280;48110;47.532;19.078;2023-01-15T03:18:55;100629.03;;;1.41;100.00
62124;BME280;48110;47.532;19.078;2023-01-15T03:22:08;100645.09;;;1.22;100.00
62124;BME280;48110;47.532;19.078;2023-01-15T03:25:22;100627.13;;;1.17;100.00
62124;BME280;48110;47.532;19.078;2023-01-15T03:28:31;100626.34;;;1.03;100.00
62124;BME280;48110;47.532;19.078;2023-01-15T03:31:39;100623.56;;;1.06;100.00
62124;BME280;48110;47.532;19.078;2023-01-15T03:34:52;100619.28;;;1.17;100.00
62124;BME280;48110;47.532;19.078;2023-01-15T03:37:59;100604.44;;;1.05;100.00
62124;BME280;48110;47.532;19.078;2023-01-15T03:51:23;100602.13;;;1.13;100.00
62124;BME280;48110;47.532;19.078;2023-01-15T03:54:38;100604.75;;;1.13;100.00
62124;BME280;48110;47.532;19.078;2023-01-15T03:57:56;100605.59;;;1.26;100.00
62124;BME280;48110;47.532;19.078;2023-01-15T04:01:06;100608.72;;;1.31;100.00
62124;BME280;48110;47.532;19.078;2023-01-15T04:04:16;100618.28;;;1.45;100.00
62124;BME280;48110;47.532;19.078;2023-01-15T04:07:24;100615.63;;;1.33;100.00
62124;BME280;48110;47.532;19.078;2023-01-15T04:10:48;100614.09;;;1.43;100.00
62124;BME280;48110;47.532;19.078;2023-01-15T04:13:57;100617.84;;;1.51;100.00
62124;BME280;48110;47.532;19.078;2023-01-15T04:17:06;100610.94;;;1.50;100.00
62124;BME280;48110;47.532;19.078;2023-01-15T04:20:12;100601.62;;;1.46;100.00
62124;BME280;48110;47.532;19.078;2023-01-15T04:23:20;100604.47;;;1.43;100.00
62124;BME280;48110;47.532;19.078;2023-01-15T04:26:27;100605.22;;;1.45;100.00
62124;BME280;48110;47.532;19.078;2023-01-15T04:29:34;100601.09;;;1.41;100.00
62124;BME280;48110;47.532;19.078;2023-01-15T04:32:43;100594.72;;;1.33;100.00
62124;BME280;48110;47.532;19.078;2023-01-15T04:35:51;100581.34;;;1.37;100.00
62124;BME280;48110;47.532;19.078;2023-01-15T04:38:59;100577.59;;;1.28;100.00
62124;BME280;48110;47.532;19.078;2023-01-15T04:42:08;100576.22;;;1.23;100.00
62124;BME280;48110;47.532;19.078;2023-01-15T04:45:36;100576.44;;;1.20;100.00
62124;BME280;48110;47.532;19.078;2023-01-15T04:48:47;100589.59;;;1.31;100.00
62124;BME280;48110;47.532;19.078;2023-01-15T04:51:53;100589.19;;;1.37;100.00
62124;BME280;48110;47.532;19.078;2023-01-15T04:55:02;100581.44;;;1.36;100.00
62124;BME280;48110;47.532;19.078;2023-01-15T04:58:09;100596.22;;;1.49;100.00
62124;BME280;48110;47.532;19.078;2023-01-15T05:01:15;100595.69;;;1.44;100.00
62124;BME280;48110;47.532;19.078;2023-01-15T05:04:24;100592.63;;;1.50;100.00
62124;BME280;48110;47.532;19.078;2023-01-15T05:07:35;100593.59;;;1.49;100.00
62124;BME280;48110;47.532;19.078;2023-01-15T05:10:45;100591.09;;;1.35;100.00
62124;BME280;48110;47.532;19.078;2023-01-15T05:13:53;100579.97;;;1.31;100.00
62124;BME280;48110;47.532;19.078;2023-01-15T05:17:00;100574.66;;;1.33;100.00
62124;BME280;48110;47.532;19.078;2023-01-15T05:20:07;100566.09;;;1.44;100.00
62124;BME280;48110;47.532;19.078;2023-01-15T05:23:14;100551.03;;;1.47;100.00
62124;BME280;48110;47.532;19.078;2023-01-15T05:26:24;100565.38;;;1.54;100.00
62124;BME280;48110;47.532;19.078;2023-01-15T05:29:32;100563.69;;;1.53;100.00
62124;BME280;48110;47.532;19.078;2023-01-15T05:32:41;100544.34;;;1.43;100.00
62124;BME280;48110;47.532;19.078;2023-01-15T05:35:47;100547.44;;;1.61;100.00
62124;BME280;48110;47.532;19.078;2023-01-15T05:38:54;100538.87;;;1.46;100.00
62124;BME280;48110;47.532;19.078;2023-01-15T05:42:02;100537.53;;;1.41;100.00
62124;BME280;48110;47.532;19.078;2023-01-15T05:45:10;100531.87;;;1.47;100.00
62124;BME280;48110;47.532;19.078;2023-01-15T05:48:16;100535.25;;;1.49;100.00
62124;BME280;48110;47.532;19.078;2023-01-15T05:51:26;100525.63;;;1.49;100.00
62124;BME280;48110;47.532;19.078;2023-01-15T05:54:33;100518.72;;;1.48;100.00
62124;BME280;48110;47.532;19.078;2023-01-15T05:57:46;100515.78;;;1.53;100.00
62124;BME280;48110;47.532;19.078;2023-01-15T06:00:58;100508.88;;;1.52;100.00
62124;BME280;48110;47.532;19.078;2023-01-15T06:04:05;100506.34;;;1.63;100.00
62124;BME280;48110;47.532;19.078;2023-01-15T06:07:12;100504.78;;;1.60;100.00
62124;BME280;48110;47.532;19.078;2023-01-15T06:10:21;100507.91;;;1.65;100.00
62124;BME280;48110;47.532;19.078;2023-01-15T06:13:31;100507.81;;;1.67;100.00
62124;BME280;48110;47.532;19.078;2023-01-15T06:16:39;100506.97;;;1.79;100.00
62124;BME280;48110;47.532;19.078;2023-01-15T06:19:46;100509.78;;;1.76;100.00
62124;BME280;48110;47.532;19.078;2023-01-15T06:22:55;100504.53;;;1.89;100.00
62124;BME280;48110;47.532;19.078;2023-01-15T06:26:04;100502.72;;;1.89;100.00
62124;BME280;48110;47.532;19.078;2023-01-15T06:29:12;100500.09;;;1.89;100.00
62124;BME280;48110;47.532;19.078;2023-01-15T06:32:23;100507.66;;;1.81;100.00
62124;BME280;48110;47.532;19.078;2023-01-15T06:35:28;100507.44;;;1.84;100.00
62124;BME280;48110;47.532;19.078;2023-01-15T06:38:38;100499.38;;;1.87;100.00
62124;BME280;48110;47.532;19.078;2023-01-15T06:41:49;100494.25;;;1.86;100.00
62124;BME280;48110;47.532;19.078;2023-01-15T06:45:12;100492.88;;;1.93;100.00
62124;BME280;48110;47.532;19.078;2023-01-15T06:48:40;100491.81;;;1.95;100.00
62124;BME280;48110;47.532;19.078;2023-01-15T06:51:49;100486.16;;;2.01;100.00
62124;BME280;48110;47.532;19.078;2023-01-15T06:54:57;100489.78;;;2.11;100.00
62124;BME280;48110;47.532;19.078;2023-01-15T06:58:03;100483.59;;;2.12;100.00
62124;BME280;48110;47.532;19.078;2023-01-15T07:01:11;100482.78;;;2.23;100.00
62124;BME280;48110;47.532;19.078;2023-01-15T07:04:19;100485.81;;;2.30;100.00
62124;BME280;48110;47.532;19.078;2023-01-15T07:07:28;100490.53;;;2.25;100.00
62124;BME280;48110;47.532;19.078;2023-01-15T07:10:38;100495.44;;;2.29;100.00
62124;BME280;48110;47.532;19.078;2023-01-15T07:13:47;100501.69;;;2.39;100.00
62124;BME280;48110;47.532;19.078;2023-01-15T07:16:55;100489.41;;;2.40;100.00
62124;BME280;48110;47.532;19.078;2023-01-15T07:20:02;100489.41;;;2.40;100.00
62124;BME280;48110;47.532;19.078;2023-01-15T07:23:08;100496.78;;;2.35;100.00
62124;BME280;48110;47.532;19.078;2023-01-15T07:26:14;100475.25;;;2.42;100.00
62124;BME280;48110;47.532;19.078;2023-01-15T07:29:20;100477.81;;;2.55;100.00
62124;BME280;48110;47.532;19.078;2023-01-15T07:32:26;100480.78;;;2.50;100.00
62124;BME280;48110;47.532;19.078;2023-01-15T07:35:32;100478.38;;;2.47;100.00
62124;BME280;48110;47.532;19.078;2023-01-15T07:38:44;100477.91;;;2.53;100.00
62124;BME280;48110;47.532;19.078;2023-01-15T07:41:50;100477.03;;;2.66;100.00
62124;BME280;48110;47.532;19.078;2023-01-15T07:45:15;100479.00;;;2.62;100.00
62124;BME280;48110;47.532;19.078;2023-01-15T07:48:40;100470.00;;;2.66;100.00
62124;BME280;48110;47.532;19.078;2023-01-15T07:52:06;100459.75;;;2.63;100.00
62124;BME280;48110;47.532;19.078;2023-01-15T07:55:11;100467.37;;;2.77;100.00
62124;BME280;48110;47.532;19.078;2023-01-15T07:58:18;100461.19;;;2.78;100.00
62124;BME280;48110;47.532;19.078;2023-01-15T08:01:28;100460.13;;;2.70;100.00
62124;BME280;48110;47.532;19.078;2023-01-15T08:04:35;100460.37;;;2.78;100.00
62124;BME280;48110;47.532;19.078;2023-01-15T08:07:42;100456.06;;;2.77;100.00
62124;BME280;48110;47.532;19.078;2023-01-15T08:10:52;100451.47;;;2.80;100.00
62124;BME280;48110;47.532;19.078;2023-01-15T08:14:17;100455.38;;;2.86;100.00
62124;BME280;48110;47.532;19.078;2023-01-15T08:17:44;100453.84;;;2.94;100.00
62124;BME280;48110;47.532;19.078;2023-01-15T08:20:53;100444.22;;;2.95;100.00
62124;BME280;48110;47.532;19.078;2023-01-15T08:23:58;100437.53;;;3.02;100.00
62124;BME280;48110;47.532;19.078;2023-01-15T08:27:06;100442.06;;;3.11;100.00
62124;BME280;48110;47.532;19.078;2023-01-15T08:30:19;100444.47;;;3.14;100.00
62124;BME280;48110;47.532;19.078;2023-01-15T08:33:31;100442.91;;;3.23;100.00
62124;BME280;48110;47.532;19.078;2023-01-15T08:36:39;100438.13;;;3.39;100.00
62124;BME280;48110;47.532;19.078;2023-01-15T08:39:44;100454.22;;;3.34;100.00
62124;BME280;48110;47.532;19.078;2023-01-15T08:42:54;100446.69;;;3.30;100.00
62124;BME280;48110;47.532;19.078;2023-01-15T08:46:01;100447.78;;;3.27;100.00
62124;BME280;48110;47.532;19.078;2023-01-15T08:49:09;100445.16;;;3.27;100.00
62124;BME280;48110;47.532;19.078;2023-01-15T08:52:15;100446.22;;;3.47;100.00
62124;BME280;48110;47.532;19.078;2023-01-15T08:55:25;100443.13;;;3.53;100.00
62124;BME280;48110;47.532;19.078;2023-01-15T08:58:55;100439.25;;;3.68;100.00
62124;BME280;48110;47.532;19.078;2023-01-15T09:02:21;100431.41;;;3.68;100.00
62124;BME280;48110;47.532;19.078;2023-01-15T09:05:26;100436.63;;;3.79;100.00
62124;BME280;48110;47.532;19.078;2023-01-15T09:08:35;100434.91;;;4.01;100.00
62124;BME280;48110;47.532;19.078;2023-01-15T09:11:43;100420.56;;;4.05;100.00
62124;BME280;48110;47.532;19.078;2023-01-15T09:14:55;100431.59;;;3.87;100.00
62124;BME280;48110;47.532;19.078;2023-01-15T09:18:08;100417.03;;;3.94;100.00
62124;BME280;48110;47.532;19.078;2023-01-15T09:21:15;100419.66;;;3.83;100.00
62124;BME280;48110;47.532;19.078;2023-01-15T09:24:21;100414.84;;;4.00;100.00
62124;BME280;48110;47.532;19.078;2023-01-15T09:27:27;100403.41;;;4.01;100.00
62124;BME280;48110;47.532;19.078;2023-01-15T09:30:35;100397.91;;;4.04;100.00
62124;BME280;48110;47.532;19.078;2023-01-15T09:33:44;100392.66;;;4.04;100.00
62124;BME280;48110;47.532;19.078;2023-01-15T09:36:51;100394.81;;;4.30;100.00
62124;BME280;48110;47.532;19.078;2023-01-15T09:39:59;100392.91;;;4.21;100.00
62124;BME280;48110;47.532;19.078;2023-01-15T09:43:16;100381.59;;;4.21;100.00
62124;BME280;48110;47.532;19.078;2023-01-15T09:46:28;100363.91;;;4.23;100.00
62124;BME280;48110;47.532;19.078;2023-01-15T09:49:45;100351.12;;;4.29;100.00
62124;BME280;48110;47.532;19.078;2023-01-15T09:56:10;100338.09;;;4.49;100.00
62124;BME280;48110;47.532;19.078;2023-01-15T10:02:52;100332.34;;;4.55;100.00
62124;BME280;48110;47.532;19.078;2023-01-15T10:06:04;100334.06;;;4.45;100.00
62124;BME280;48110;47.532;19.078;2023-01-15T10:09:17;100323.12;;;4.70;100.00
62124;BME280;48110;47.532;19.078;2023-01-15T10:12:30;100311.69;;;4.80;100.00
62124;BME280;48110;47.532;19.078;2023-01-15T10:15:41;100309.50;;;4.86;100.00
62124;BME280;48110;47.532;19.078;2023-01-15T10:18:52;100303.75;;;5.01;100.00
62124;BME280;48110;47.532;19.078;2023-01-15T10:25:04;100291.06;;;5.25;100.00
62124;BME280;48110;47.532;19.078;2023-01-15T10:28:16;100292.09;;;5.04;100.00
62124;BME280;48110;47.532;19.078;2023-01-15T10:31:22;100288.81;;;5.02;100.00
62124;BME280;48110;47.532;19.078;2023-01-15T10:34:52;100273.97;;;5.01;100.00
62124;BME280;48110;47.532;19.078;2023-01-15T10:38:18;100262.19;;;4.95;100.00
62124;BME280;48110;47.532;19.078;2023-01-15T10:44:56;100268.66;;;5.31;100.00
62124;BME280;48110;47.532;19.078;2023-01-15T10:48:09;100254.97;;;5.66;100.00
62124;BME280;48110;47.532;19.078;2023-01-15T10:51:20;100239.41;;;5.92;100.00
62124;BME280;48110;47.532;19.078;2023-01-15T11:01:14;100223.94;;;5.50;100.00
62124;BME280;48110;47.532;19.078;2023-01-15T11:04:24;100218.94;;;5.47;100.00
62124;BME280;48110;47.532;19.078;2023-01-15T11:07:35;100197.59;;;5.69;100.00
62124;BME280;48110;47.532;19.078;2023-01-15T11:11:12;100199.63;;;6.04;100.00
62124;BME280;48110;47.532;19.078;2023-01-15T11:14:19;100195.75;;;5.99;100.00
62124;BME280;48110;47.532;19.078;2023-01-15T11:17:44;100197.72;;;5.78;100.00
62124;BME280;48110;47.532;19.078;2023-01-15T11:21:14;100191.59;;;5.96;100.00
62124;BME280;48110;47.532;19.078;2023-01-15T11:24:20;100182.34;;;5.73;100.00
62124;BME280;48110;47.532;19.078;2023-01-15T11:27:26;100169.28;;;6.00;100.00
62124;BME280;48110;47.532;19.078;2023-01-15T11:30:51;100172.78;;;6.28;100.00
62124;BME280;48110;47.532;19.078;2023-01-15T11:34:00;100166.44;;;6.21;100.00
62124;BME280;48110;47.532;19.078;2023-01-15T11:37:08;100161.66;;;6.34;100.00
62124;BME280;48110;47.532;19.078;2023-01-15T11:40:15;100153.88;;;6.42;100.00
62124;BME280;48110;47.532;19.078;2023-01-15T11:43:23;100153.19;;;6.68;100.00
62124;BME280;48110;47.532;19.078;2023-01-15T11:46:47;100151.59;;;6.75;100.00
62124;BME280;48110;47.532;19.078;2023-01-15T11:50:18;100135.69;;;6.67;100.00
62124;BME280;48110;47.532;19.078;2023-01-15T11:53:44;100102.63;;;6.90;100.00
62124;BME280;48110;47.532;19.078;2023-01-15T11:56:53;100100.12;;;6.53;100.00
62124;BME280;48110;47.532;19.078;2023-01-15T12:00:04;100099.81;;;6.56;100.00
62124;BME280;48110;47.532;19.078;2023-01-15T12:03:20;100087.69;;;6.45;100.00
62124;BME280;48110;47.532;19.078;2023-01-15T12:06:26;100086.50;;;6.75;100.00
62124;BME280;48110;47.532;19.078;2023-01-15T12:19:25;100080.59;;;7.17;100.00
62124;BME280;48110;47.532;19.078;2023-01-15T12:26:19;100085.00;;;6.90;100.00
62124;BME280;48110;47.532;19.078;2023-01-15T12:29:28;100075.19;;;6.65;100.00
62124;BME280;48110;47.532;19.078;2023-01-15T12:32:36;100071.94;;;6.53;100.00
62124;BME280;48110;47.532;19.078;2023-01-15T12:35:48;100058.66;;;6.73;100.00
62124;BME280;48110;47.532;19.078;2023-01-15T12:38:59;100063.44;;;6.95;100.00
62124;BME280;48110;47.532;19.078;2023-01-15T12:42:09;100065.09;;;7.14;100.00
62124;BME280;48110;47.532;19.078;2023-01-15T12:45:41;100060.81;;;6.95;100.00
62124;BME280;48110;47.532;19.078;2023-01-15T12:49:33;100058.34;;;6.76;100.00
62124;BME280;48110;47.532;19.078;2023-01-15T12:52:18;100059.44;;;7.09;100.00
62124;BME280;48110;47.532;19.078;2023-01-15T12:55:33;100050.19;;;7.05;100.00
62124;BME280;48110;47.532;19.078;2023-01-15T13:02:01;100042.97;;;7.07;100.00
62124;BME280;48110;47.532;19.078;2023-01-15T13:05:26;100033.75;;;7.11;100.00
62124;BME280;48110;47.532;19.078;2023-01-15T13:11:41;100035.28;;;6.95;100.00
62124;BME280;48110;47.532;19.078;2023-01-15T13:14:47;100029.47;;;7.35;100.00
62124;BME280;48110;47.532;19.078;2023-01-15T13:18:03;100030.84;;;7.22;100.00
62124;BME280;48110;47.532;19.078;2023-01-15T13:21:16;100032.91;;;7.10;100.00
62124;BME280;48110;47.532;19.078;2023-01-15T13:27:50;100021.94;;;6.79;100.00
62124;BME280;48110;47.532;19.078;2023-01-15T13:34:22;99996.47;;;6.88;100.00
62124;BME280;48110;47.532;19.078;2023-01-15T13:37:45;100005.72;;;7.10;100.00
62124;BME280;48110;47.532;19.078;2023-01-15T13:40:53;100008.97;;;7.29;100.00
62124;BME280;48110;47.532;19.078;2023-01-15T13:44:00;99999.16;;;7.48;100.00
62124;BME280;48110;47.532;19.078;2023-01-15T13:47:10;100006.22;;;7.39;100.00
62124;BME280;48110;47.532;19.078;2023-01-15T13:50:22;99995.69;;;7.47;100.00
62124;BME280;48110;47.532;19.078;2023-01-15T13:53:45;99990.66;;;7.28;100.00
62124;BME280;48110;47.532;19.078;2023-01-15T13:56:52;99995.16;;;7.35;100.00
62124;BME280;48110;47.532;19.078;2023-01-15T14:00:00;99992.81;;;7.32;100.00
62124;BME280;48110;47.532;19.078;2023-01-15T14:03:24;99980.69;;;7.48;100.00
62124;BME280;48110;47.532;19.078;2023-01-15T14:06:36;99974.09;;;7.43;100.00
62124;BME280;48110;47.532;19.078;2023-01-15T14:09:48;99982.22;;;7.24;100.00
62124;BME280;48110;47.532;19.078;2023-01-15T14:16:10;99982.47;;;7.13;100.00
62124;BME280;48110;47.532;19.078;2023-01-15T14:19:29;99973.91;;;7.11;100.00
62124;BME280;48110;47.532;19.078;2023-01-15T14:22:43;99972.59;;;7.15;100.00
62124;BME280;48110;47.532;19.078;2023-01-15T14:35:39;99964.94;;;7.04;100.00
62124;BME280;48110;47.532;19.078;2023-01-15T14:38:47;99961.84;;;7.09;100.00
62124;BME280;48110;47.532;19.078;2023-01-15T14:41:59;99958.56;;;7.07;100.00
62124;BME280;48110;47.532;19.078;2023-01-15T14:45:31;99953.72;;;7.02;100.00
62124;BME280;48110;47.532;19.078;2023-01-15T14:48:37;99952.22;;;6.99;100.00
62124;BME280;48110;47.532;19.078;2023-01-15T14:51:46;99943.62;;;6.97;100.00
62124;BME280;48110;47.532;19.078;2023-01-15T14:54:55;99942.84;;;6.97;100.00
62124;BME280;48110;47.532;19.078;2023-01-15T14:58:09;99950.75;;;6.97;100.00
62124;BME280;48110;47.532;19.078;2023-01-15T15:07:41;99947.19;;;6.88;100.00
62124;BME280;48110;47.532;19.078;2023-01-15T15:10:52;99945.09;;;6.92;100.00
62124;BME280;48110;47.532;19.078;2023-01-15T15:13:59;99938.63;;;6.86;100.00
62124;BME280;48110;47.532;19.078;2023-01-15T15:17:21;99942.41;;;6.84;100.00
62124;BME280;48110;47.532;19.078;2023-01-15T15:20:32;99926.56;;;6.84;100.00
62124;BME280;48110;47.532;19.078;2023-01-15T15:26:53;99916.84;;;6.84;100.00
62124;BME280;48110;47.532;19.078;2023-01-15T15:30:04;99919.81;;;6.81;100.00
62124;BME280;48110;47.532;19.078;2023-01-15T15:33:21;99915.53;;;6.80;100.00
62124;BME280;48110;47.532;19.078;2023-01-15T15:36:28;99909.75;;;6.77;100.00
62124;BME280;48110;47.532;19.078;2023-01-15T15:46:28;99896.09;;;6.81;100.00
62124;BME280;48110;47.532;19.078;2023-01-15T15:49:51;99894.91;;;6.76;100.00
62124;BME280;48110;47.532;19.078;2023-01-15T15:52:57;99900.16;;;6.76;100.00
62124;BME280;48110;47.532;19.078;2023-01-15T15:56:02;99896.69;;;6.75;100.00
62124;BME280;48110;47.532;19.078;2023-01-15T15:59:06;99893.91;;;6.77;100.00
62124;BME280;48110;47.532;19.078;2023-01-15T16:05:22;99896.47;;;6.69;100.00
62124;BME280;48110;47.532;19.078;2023-01-15T16:08:28;99902.66;;;6.77;100.00
62124;BME280;48110;47.532;19.078;2023-01-15T16:11:35;99908.59;;;6.79;100.00
62124;BME280;48110;47.532;19.078;2023-01-15T16:14:43;99901.00;;;6.76;100.00
62124;BME280;48110;47.532;19.078;2023-01-15T16:17:50;99896.22;;;6.80;100.00
62124;BME280;48110;47.532;19.078;2023-01-15T16:20:59;99889.31;;;6.79;100.00
62124;BME280;48110;47.532;19.078;2023-01-15T16:24:17;99890.28;;;6.78;100.00
62124;BME280;48110;47.532;19.078;2023-01-15T16:27:30;99900.81;;;6.78;100.00
62124;BME280;48110;47.532;19.078;2023-01-15T16:30:44;99902.34;;;6.80;100.00
62124;BME280;48110;47.532;19.078;2023-01-15T16:33:52;99893.91;;;6.77;100.00
62124;BME280;48110;47.532;19.078;2023-01-15T16:37:02;99896.69;;;6.75;100.00
62124;BME280;48110;47.532;19.078;2023-01-15T16:40:14;99896.84;;;6.74;100.00
62124;BME280;48110;47.532;19.078;2023-01-15T16:43:24;99894.75;;;6.77;100.00
62124;BME280;48110;47.532;19.078;2023-01-15T16:46:46;99895.34;;;6.71;100.00
62124;BME280;48110;47.532;19.078;2023-01-15T16:53:29;99893.13;;;6.59;100.00
62124;BME280;48110;47.532;19.078;2023-01-15T16:59:54;99895.94;;;6.57;100.00
62124;BME280;48110;47.532;19.078;2023-01-15T17:03:00;99889.34;;;6.61;100.00
62124;BME280;48110;47.532;19.078;2023-01-15T17:06:10;99890.34;;;6.60;100.00
62124;BME280;48110;47.532;19.078;2023-01-15T17:09:21;99886.56;;;6.63;100.00
62124;BME280;48110;47.532;19.078;2023-01-15T17:15:41;99890.19;;;6.44;100.00
62124;BME280;48110;47.532;19.078;2023-01-15T17:18:49;99879.41;;;6.29;100.00
62124;BME280;48110;47.532;19.078;2023-01-15T17:21:59;99877.47;;;6.14;100.00
62124;BME280;48110;47.532;19.078;2023-01-15T17:25:20;99865.66;;;6.00;100.00
62124;BME280;48110;47.532;19.078;2023-01-15T17:28:28;99867.53;;;5.90;100.00
62124;BME280;48110;47.532;19.078;2023-01-15T17:31:35;99865.94;;;5.79;100.00
62124;BME280;48110;47.532;19.078;2023-01-15T17:34:43;99868.75;;;5.68;100.00
62124;BME280;48110;47.532;19.078;2023-01-15T17:37:50;99867.78;;;5.69;100.00
62124;BME280;48110;47.532;19.078;2023-01-15T17:41:01;99870.19;;;5.62;100.00
62124;BME280;48110;47.532;19.078;2023-01-15T17:44:12;99879.81;;;5.54;100.00
62124;BME280;48110;47.532;19.078;2023-01-15T17:47:19;99873.84;;;5.52;100.00
62124;BME280;48110;47.532;19.078;2023-01-15T17:50:27;99870.16;;;5.45;100.00
62124;BME280;48110;47.532;19.078;2023-01-15T17:53:38;99874.91;;;5.41;100.00
62124;BME280;48110;47.532;19.078;2023-01-15T17:56:45;99874.22;;;5.39;100.00
62124;BME280;48110;47.532;19.078;2023-01-15T18:00:10;99871.00;;;5.45;100.00
62124;BME280;48110;47.532;19.078;2023-01-15T18:03:35;99869.03;;;5.47;100.00
62124;BME280;48110;47.532;19.078;2023-01-15T18:07:03;99868.22;;;5.47;100.00
62124;BME280;48110;47.532;19.078;2023-01-15T18:10:12;99872.72;;;5.37;100.00
62124;BME280;48110;47.532;19.078;2023-01-15T18:13:23;99881.84;;;5.33;100.00
62124;BME280;48110;47.532;19.078;2023-01-15T18:16:27;99876.59;;;5.33;100.00